sensor_id;sensor_type;location;lat;lon;timestamp;temperature;humidity
7163;DHT22;3623;47.098;15.446;2023-08-08T00:02:21;11.60;99.90
7163;DHT22;3623;47.098;15.446;2023-08-08T00:04:49;11.50;99.90
7163;DHT22;3623;47.098;15.446;2023-08-08T00:07:16;11.50;99.90
7163;DHT22;3623;47.098;15.446;2023-08-08T00:09:43;11.50;99.90
7163;DHT22;3623;47.098;15.446;2023-08-08T00:12:10;11.40;99.90
7163;DHT22;3623;47.098;15.446;2023-08-08T00:14:37;11.40;99.90
7163;DHT22;3623;47.098;15.446;2023-08-08T00:17:05;11.40;99.90
7163;DHT22;3623;47.098;15.446;2023-08-08T00:19:33;11.40;99.90
7163;DHT22;3623;47.098;15.446;2023-08-08T00:22:01;11.60;99.90
7163;DHT22;3623;47.098;15.446;2023-08-08T00:24:28;11.40;99.90
7163;DHT22;3623;47.098;15.446;2023-08-08T00:26:55;11.50;99.90
7163;DHT22;3623;47.098;15.446;2023-08-08T00:29:22;11.50;99.90
7163;DHT22;3623;47.098;15.446;2023-08-08T00:31:49;11.50;99.90
7163;DHT22;3623;47.098;15.446;2023-08-08T00:34:16;11.60;99.90
7163;DHT22;3623;47.098;15.446;2023-08-08T00:36:45;11.60;99.90
7163;DHT22;3623;47.098;15.446;2023-08-08T00:39:12;11.60;99.90
7163;DHT22;3623;47.098;15.446;2023-08-08T00:41:39;11.60;99.90
7163;DHT22;3623;47.098;15.446;2023-08-08T00:44:06;11.60;99.90
7163;DHT22;3623;47.098;15.446;2023-08-08T00:46:33;11.50;99.90
7163;DHT22;3623;47.098;15.446;2023-08-08T00:49:00;11.40;99.90
7163;DHT22;3623;47.098;15.446;2023-08-08T00:51:27;11.40;99.90
7163;DHT22;3623;47.098;15.446;2023-08-08T00:53:56;11.40;99.90
7163;DHT22;3623;47.098;15.446;2023-08-08T00:56:24;11.30;99.90
7163;DHT22;3623;47.098;15.446;2023-08-08T00:58:51;11.30;99.90
7163;DHT22;3623;47.098;15.446;2023-08-08T01:01:18;11.30;99.90
7163;DHT22;3623;47.098;15.446;2023-08-08T01:03:45;11.40;99.90
7163;DHT22;3623;47.098;15.446;2023-08-08T01:06:33;11.30;99.90
7163;DHT22;3623;47.098;15.446;2023-08-08T01:09:07;11.20;99.90
7163;DHT22;3623;47.098;15.446;2023-08-08T01:11:37;11.10;99.90
7163;DHT22;3623;47.098;15.446;2023-08-08T01:14:06;11.10;99.90
7163;DHT22;3623;47.098;15.446;2023-08-08T01:16:35;11.10;99.90
7163;DHT22;3623;47.098;15.446;2023-08-08T01:19:04;11.20;99.90
7163;DHT22;3623;47.098;15.446;2023-08-08T01:21:36;11.20;99.90
7163;DHT22;3623;47.098;15.446;2023-08-08T01:24:18;11.20;99.90
7163;DHT22;3623;47.098;15.446;2023-08-08T01:26:46;11.20;99.90
7163;DHT22;3623;47.098;15.446;2023-08-08T01:29:13;11.10;99.90
7163;DHT22;3623;47.098;15.446;2023-08-08T01:31:40;11.00;99.90
7163;DHT22;3623;47.098;15.446;2023-08-08T01:34:08;10.90;99.90
7163;DHT22;3623;47.098;15.446;2023-08-08T01:36:39;10.80;99.90
7163;DHT22;3623;47.098;15.446;2023-08-08T01:39:13;10.60;99.90
7163;DHT22;3623;47.098;15.446;2023-08-08T01:41:44;10.40;99.90
7163;DHT22;3623;47.098;15.446;2023-08-08T01:44:13;10.30;99.90
7163;DHT22;3623;47.098;15.446;2023-08-08T01:46:40;10.20;99.90
7163;DHT22;3623;47.098;15.446;2023-08-08T01:49:08;10.00;99.90
7163;DHT22;3623;47.098;15.446;2023-08-08T01:51:35;9.80;99.90
7163;DHT22;3623;47.098;15.446;2023-08-08T01:54:02;9.70;99.90
7163;DHT22;3623;47.098;15.446;2023-08-08T01:56:29;9.90;99.90
7163;DHT22;3623;47.098;15.446;2023-08-08T01:58:58;10.10;99.90
7163;DHT22;3623;47.098;15.446;2023-08-08T02:01:25;10.30;99.90
7163;DHT22;3623;47.098;15.446;2023-08-08T02:03:52;10.40;99.90
7163;DHT22;3623;47.098;15.446;2023-08-08T02:06:19;10.50;99.90
7163;DHT22;3623;47.098;15.446;2023-08-08T02:08:46;10.60;99.90
7163;DHT22;3623;47.098;15.446;2023-08-08T02:11:13;10.60;99.90
7163;DHT22;3623;47.098;15.446;2023-08-08T02:13:40;10.60;99.90
7163;DHT22;3623;47.098;15.446;2023-08-08T02:16:09;10.60;99.90
7163;DHT22;3623;47.098;15.446;2023-08-08T02:18:36;10.60;99.90
7163;DHT22;3623;47.098;15.446;2023-08-08T02:21:06;10.60;99.90
7163;DHT22;3623;47.098;15.446;2023-08-08T02:23:33;10.60;99.90
7163;DHT22;3623;47.098;15.446;2023-08-08T02:26:03;10.60;99.90
7163;DHT22;3623;47.098;15.446;2023-08-08T02:28:30;10.60;99.90
7163;DHT22;3623;47.098;15.446;2023-08-08T02:30:58;10.60;99.90
7163;DHT22;3623;47.098;15.446;2023-08-08T02:33:26;10.60;99.90
7163;DHT22;3623;47.098;15.446;2023-08-08T02:35:53;10.60;99.90
7163;DHT22;3623;47.098;15.446;2023-08-08T02:38:20;10.50;99.90
7163;DHT22;3623;47.098;15.446;2023-08-08T02:40:48;10.50;99.90
7163;DHT22;3623;47.098;15.446;2023-08-08T02:43:15;10.50;99.90
7163;DHT22;3623;47.098;15.446;2023-08-08T02:45:42;10.40;99.90
7163;DHT22;3623;47.098;15.446;2023-08-08T02:48:09;10.30;99.90
7163;DHT22;3623;47.098;15.446;2023-08-08T02:50:38;10.30;99.90
7163;DHT22;3623;47.098;15.446;2023-08-08T02:53:05;10.20;99.90
7163;DHT22;3623;47.098;15.446;2023-08-08T02:55:32;10.20;99.90
7163;DHT22;3623;47.098;15.446;2023-08-08T02:57:59;10.00;99.90
7163;DHT22;3623;47.098;15.446;2023-08-08T03:00:26;9.90;99.90
7163;DHT22;3623;47.098;15.446;2023-08-08T03:02:53;9.80;99.90
7163;DHT22;3623;47.098;15.446;2023-08-08T03:05:20;9.80;99.90
7163;DHT22;3623;47.098;15.446;2023-08-08T03:07:49;9.80;99.90
7163;DHT22;3623;47.098;15.446;2023-08-08T03:10:16;9.80;99.90
7163;DHT22;3623;47.098;15.446;2023-08-08T03:12:43;9.90;99.90
7163;DHT22;3623;47.098;15.446;2023-08-08T03:15:11;9.90;99.90
7163;DHT22;3623;47.098;15.446;2023-08-08T03:17:38;9.90;99.90
7163;DHT22;3623;47.098;15.446;2023-08-08T03:20:06;9.90;99.90
7163;DHT22;3623;47.098;15.446;2023-08-08T03:22:34;9.90;99.90
7163;DHT22;3623;47.098;15.446;2023-08-08T03:25:03;9.90;99.90
7163;DHT22;3623;47.098;15.446;2023-08-08T03:27:30;9.90;99.90
7163;DHT22;3623;47.098;15.446;2023-08-08T03:29:58;9.90;99.90
7163;DHT22;3623;47.098;15.446;2023-08-08T03:32:25;9.80;99.90
7163;DHT22;3623;47.098;15.446;2023-08-08T03:34:52;9.90;99.90
7163;DHT22;3623;47.098;15.446;2023-08-08T03:37:19;9.80;99.90
7163;DHT22;3623;47.098;15.446;2023-08-08T03:39:46;9.80;99.90
7163;DHT22;3623;47.098;15.446;2023-08-08T03:42:15;9.80;99.90
7163;DHT22;3623;47.098;15.446;2023-08-08T03:44:42;9.70;99.90
7163;DHT22;3623;47.098;15.446;2023-08-08T03:47:10;9.70;99.90
7163;DHT22;3623;47.098;15.446;2023-08-08T03:49:38;9.70;99.90
7163;DHT22;3623;47.098;15.446;2023-08-08T03:52:05;9.70;99.90
7163;DHT22;3623;47.098;15.446;2023-08-08T03:54:32;9.70;99.90
7163;DHT22;3623;47.098;15.446;2023-08-08T03:56:59;9.70;99.90
7163;DHT22;3623;47.098;15.446;2023-08-08T03:59:30;9.70;99.90
7163;DHT22;3623;47.098;15.446;2023-08-08T04:01:57;9.60;99.90
7163;DHT22;3623;47.098;15.446;2023-08-08T04:04:24;9.60;99.90
7163;DHT22;3623;47.098;15.446;2023-08-08T04:06:51;9.50;99.90
7163;DHT22;3623;47.098;15.446;2023-08-08T04:09:18;9.50;99.90
7163;DHT22;3623;47.098;15.446;2023-08-08T04:11:46;9.50;99.90
7163;DHT22;3623;47.098;15.446;2023-08-08T04:14:13;9.60;99.90
7163;DHT22;3623;47.098;15.446;2023-08-08T04:16:44;9.60;99.90
7163;DHT22;3623;47.098;15.446;2023-08-08T04:19:11;9.70;99.90
7163;DHT22;3623;47.098;15.446;2023-08-08T04:21:38;9.80;99.90
7163;DHT22;3623;47.098;15.446;2023-08-08T04:24:07;9.70;99.90
7163;DHT22;3623;47.098;15.446;2023-08-08T04:26:34;9.70;99.90
7163;DHT22;3623;47.098;15.446;2023-08-08T04:29:01;9.60;99.90
7163;DHT22;3623;47.098;15.446;2023-08-08T04:31:28;9.50;99.90
7163;DHT22;3623;47.098;15.446;2023-08-08T04:33:57;9.50;99.90
7163;DHT22;3623;47.098;15.446;2023-08-08T04:36:26;9.50;99.90
7163;DHT22;3623;47.098;15.446;2023-08-08T04:38:53;9.60;99.90
7163;DHT22;3623;47.098;15.446;2023-08-08T04:41:21;9.70;99.90
7163;DHT22;3623;47.098;15.446;2023-08-08T04:43:48;9.70;99.90
7163;DHT22;3623;47.098;15.446;2023-08-08T04:46:15;9.80;99.90
7163;DHT22;3623;47.098;15.446;2023-08-08T04:48:42;9.80;99.90
7163;DHT22;3623;47.098;15.446;2023-08-08T04:51:10;9.80;99.90
7163;DHT22;3623;47.098;15.446;2023-08-08T04:53:37;9.80;99.90
7163;DHT22;3623;47.098;15.446;2023-08-08T04:56:04;9.80;99.90
7163;DHT22;3623;47.098;15.446;2023-08-08T04:58:32;9.90;99.90
7163;DHT22;3623;47.098;15.446;2023-08-08T05:00:59;9.90;99.90
7163;DHT22;3623;47.098;15.446;2023-08-08T05:03:26;9.90;99.90
7163;DHT22;3623;47.098;15.446;2023-08-08T05:05:53;10.00;99.90
7163;DHT22;3623;47.098;15.446;2023-08-08T05:08:21;10.00;99.90
7163;DHT22;3623;47.098;15.446;2023-08-08T05:10:49;10.00;99.90
7163;DHT22;3623;47.098;15.446;2023-08-08T05:13:16;10.10;99.90
7163;DHT22;3623;47.098;15.446;2023-08-08T05:15:43;10.10;99.90
7163;DHT22;3623;47.098;15.446;2023-08-08T05:18:10;10.20;99.90
7163;DHT22;3623;47.098;15.446;2023-08-08T05:20:37;10.30;99.90
7163;DHT22;3623;47.098;15.446;2023-08-08T05:23:04;10.30;99.90
7163;DHT22;3623;47.098;15.446;2023-08-08T05:25:33;10.30;99.90
7163;DHT22;3623;47.098;15.446;2023-08-08T05:28:00;10.30;99.90
7163;DHT22;3623;47.098;15.446;2023-08-08T05:30:27;10.30;99.90
7163;DHT22;3623;47.098;15.446;2023-08-08T05:32:54;10.30;99.90
7163;DHT22;3623;47.098;15.446;2023-08-08T05:35:21;10.50;99.90
7163;DHT22;3623;47.098;15.446;2023-08-08T05:37:48;10.60;99.90
7163;DHT22;3623;47.098;15.446;2023-08-08T05:40:15;10.70;99.90
7163;DHT22;3623;47.098;15.446;2023-08-08T05:42:44;10.90;99.90
7163;DHT22;3623;47.098;15.446;2023-08-08T05:45:11;11.00;99.90
7163;DHT22;3623;47.098;15.446;2023-08-08T05:47:38;11.10;99.90
7163;DHT22;3623;47.098;15.446;2023-08-08T05:50:06;11.10;99.90
7163;DHT22;3623;47.098;15.446;2023-08-08T05:52:33;11.20;99.90
7163;DHT22;3623;47.098;15.446;2023-08-08T05:55:01;11.30;99.90
7163;DHT22;3623;47.098;15.446;2023-08-08T05:57:28;11.40;99.90
7163;DHT22;3623;47.098;15.446;2023-08-08T05:59:57;11.40;99.90
7163;DHT22;3623;47.098;15.446;2023-08-08T06:02:24;11.50;99.90
7163;DHT22;3623;47.098;15.446;2023-08-08T06:04:51;11.60;99.90
7163;DHT22;3623;47.098;15.446;2023-08-08T06:07:18;11.70;99.90
7163;DHT22;3623;47.098;15.446;2023-08-08T06:09:45;11.80;99.90
7163;DHT22;3623;47.098;15.446;2023-08-08T06:12:12;11.90;99.90
7163;DHT22;3623;47.098;15.446;2023-08-08T06:14:39;12.20;99.90
7163;DHT22;3623;47.098;15.446;2023-08-08T06:17:08;11.90;99.90
7163;DHT22;3623;47.098;15.446;2023-08-08T06:19:35;12.00;99.90
7163;DHT22;3623;47.098;15.446;2023-08-08T06:22:03;12.20;99.90
7163;DHT22;3623;47.098;15.446;2023-08-08T06:24:30;12.30;99.90
7163;DHT22;3623;47.098;15.446;2023-08-08T06:26:57;12.40;99.90
7163;DHT22;3623;47.098;15.446;2023-08-08T06:29:24;12.50;99.90
7163;DHT22;3623;47.098;15.446;2023-08-08T06:31:52;12.70;99.90
7163;DHT22;3623;47.098;15.446;2023-08-08T06:34:21;12.80;99.90
7163;DHT22;3623;47.098;15.446;2023-08-08T06:36:48;13.00;99.90
7163;DHT22;3623;47.098;15.446;2023-08-08T06:39:15;13.20;99.90
7163;DHT22;3623;47.098;15.446;2023-08-08T06:41:45;13.20;99.90
7163;DHT22;3623;47.098;15.446;2023-08-08T06:44:12;13.40;99.90
7163;DHT22;3623;47.098;15.446;2023-08-08T06:46:39;13.40;99.90
7163;DHT22;3623;47.098;15.446;2023-08-08T06:49:07;13.70;99.90
7163;DHT22;3623;47.098;15.446;2023-08-08T06:51:36;13.50;99.90
7163;DHT22;3623;47.098;15.446;2023-08-08T06:54:03;13.50;99.90
7163;DHT22;3623;47.098;15.446;2023-08-08T06:56:31;13.60;99.90
7163;DHT22;3623;47.098;15.446;2023-08-08T06:58:58;13.70;99.90
7163;DHT22;3623;47.098;15.446;2023-08-08T07:01:25;13.90;99.90
7163;DHT22;3623;47.098;15.446;2023-08-08T07:03:53;13.90;99.90
7163;DHT22;3623;47.098;15.446;2023-08-08T07:06:20;13.90;99.90
7163;DHT22;3623;47.098;15.446;2023-08-08T07:08:48;13.90;99.90
7163;DHT22;3623;47.098;15.446;2023-08-08T07:11:15;14.00;99.90
7163;DHT22;3623;47.098;15.446;2023-08-08T07:13:43;14.20;99.90
7163;DHT22;3623;47.098;15.446;2023-08-08T07:16:10;14.40;99.90
7163;DHT22;3623;47.098;15.446;2023-08-08T07:18:37;14.60;99.90
7163;DHT22;3623;47.098;15.446;2023-08-08T07:21:04;15.10;99.90
7163;DHT22;3623;47.098;15.446;2023-08-08T07:23:31;15.70;99.90
7163;DHT22;3623;47.098;15.446;2023-08-08T07:26:00;16.10;99.90
7163;DHT22;3623;47.098;15.446;2023-08-08T07:28:27;16.20;99.90
7163;DHT22;3623;47.098;15.446;2023-08-08T07:30:54;16.00;99.90
7163;DHT22;3623;47.098;15.446;2023-08-08T07:33:21;16.00;99.90
7163;DHT22;3623;47.098;15.446;2023-08-08T07:35:48;16.10;99.90
7163;DHT22;3623;47.098;15.446;2023-08-08T07:38:15;16.30;99.90
7163;DHT22;3623;47.098;15.446;2023-08-08T07:40:42;16.50;99.90
7163;DHT22;3623;47.098;15.446;2023-08-08T07:43:11;16.40;99.90
7163;DHT22;3623;47.098;15.446;2023-08-08T07:45:38;16.20;99.90
7163;DHT22;3623;47.098;15.446;2023-08-08T07:48:06;16.20;99.90
7163;DHT22;3623;47.098;15.446;2023-08-08T07:50:33;16.30;99.90
7163;DHT22;3623;47.098;15.446;2023-08-08T07:53:00;16.40;99.90
7163;DHT22;3623;47.098;15.446;2023-08-08T07:55:27;16.30;99.90
7163;DHT22;3623;47.098;15.446;2023-08-08T07:57:54;16.40;99.90
7163;DHT22;3623;47.098;15.446;2023-08-08T08:00:23;16.30;99.90
7163;DHT22;3623;47.098;15.446;2023-08-08T08:02:50;16.40;99.90
7163;DHT22;3623;47.098;15.446;2023-08-08T08:05:17;16.40;99.90
7163;DHT22;3623;47.098;15.446;2023-08-08T08:07:44;16.50;99.90
7163;DHT22;3623;47.098;15.446;2023-08-08T08:10:12;16.50;99.90
7163;DHT22;3623;47.098;15.446;2023-08-08T08:12:40;16.50;99.90
7163;DHT22;3623;47.098;15.446;2023-08-08T08:15:09;16.60;99.90
7163;DHT22;3623;47.098;15.446;2023-08-08T08:17:37;16.60;99.90
7163;DHT22;3623;47.098;15.446;2023-08-08T08:20:06;16.70;99.90
7163;DHT22;3623;47.098;15.446;2023-08-08T08:22:36;16.70;99.90
7163;DHT22;3623;47.098;15.446;2023-08-08T08:25:04;16.80;99.90
7163;DHT22;3623;47.098;15.446;2023-08-08T08:27:33;16.80;99.90
7163;DHT22;3623;47.098;15.446;2023-08-08T08:30:00;16.80;99.90
7163;DHT22;3623;47.098;15.446;2023-08-08T08:32:27;16.90;99.90
7163;DHT22;3623;47.098;15.446;2023-08-08T08:34:56;16.90;99.90
7163;DHT22;3623;47.098;15.446;2023-08-08T08:37:23;17.00;99.90
7163;DHT22;3623;47.098;15.446;2023-08-08T08:39:50;17.10;99.90
7163;DHT22;3623;47.098;15.446;2023-08-08T08:42:18;17.20;99.90
7163;DHT22;3623;47.098;15.446;2023-08-08T08:44:46;17.40;99.90
7163;DHT22;3623;47.098;15.446;2023-08-08T08:47:15;17.60;99.90
7163;DHT22;3623;47.098;15.446;2023-08-08T08:49:44;17.40;99.90
7163;DHT22;3623;47.098;15.446;2023-08-08T08:52:13;17.40;99.90
7163;DHT22;3623;47.098;15.446;2023-08-08T08:54:40;17.50;99.90
7163;DHT22;3623;47.098;15.446;2023-08-08T08:57:07;17.50;99.90
7163;DHT22;3623;47.098;15.446;2023-08-08T08:59:35;17.60;99.90
7163;DHT22;3623;47.098;15.446;2023-08-08T09:02:02;17.60;99.90
7163;DHT22;3623;47.098;15.446;2023-08-08T09:04:30;17.70;99.90
7163;DHT22;3623;47.098;15.446;2023-08-08T09:06:57;17.70;99.90
7163;DHT22;3623;47.098;15.446;2023-08-08T09:09:25;17.80;99.90
7163;DHT22;3623;47.098;15.446;2023-08-08T09:11:53;17.80;99.90
7163;DHT22;3623;47.098;15.446;2023-08-08T09:14:22;17.90;99.90
7163;DHT22;3623;47.098;15.446;2023-08-08T09:16:50;17.80;99.90
7163;DHT22;3623;47.098;15.446;2023-08-08T09:19:19;17.80;99.90
7163;DHT22;3623;47.098;15.446;2023-08-08T09:21:46;17.90;99.90
7163;DHT22;3623;47.098;15.446;2023-08-08T09:24:13;17.90;99.90
7163;DHT22;3623;47.098;15.446;2023-08-08T09:26:43;18.00;99.90
7163;DHT22;3623;47.098;15.446;2023-08-08T09:29:12;18.10;99.90
7163;DHT22;3623;47.098;15.446;2023-08-08T09:31:40;18.10;99.90
7163;DHT22;3623;47.098;15.446;2023-08-08T09:34:07;18.10;99.90
7163;DHT22;3623;47.098;15.446;2023-08-08T09:36:35;18.10;99.90
7163;DHT22;3623;47.098;15.446;2023-08-08T09:39:02;18.30;99.90
7163;DHT22;3623;47.098;15.446;2023-08-08T09:41:31;18.50;99.90
7163;DHT22;3623;47.098;15.446;2023-08-08T09:44:00;18.70;99.90
7163;DHT22;3623;47.098;15.446;2023-08-08T09:46:30;18.80;99.90
7163;DHT22;3623;47.098;15.446;2023-08-08T09:48:58;18.90;99.90
7163;DHT22;3623;47.098;15.446;2023-08-08T09:51:26;19.10;99.90
7163;DHT22;3623;47.098;15.446;2023-08-08T09:53:54;19.00;99.90
7163;DHT22;3623;47.098;15.446;2023-08-08T09:56:23;19.00;99.90
7163;DHT22;3623;47.098;15.446;2023-08-08T09:58:51;19.10;99.90
7163;DHT22;3623;47.098;15.446;2023-08-08T10:01:20;19.20;99.90
7163;DHT22;3623;47.098;15.446;2023-08-08T10:03:48;19.40;99.90
7163;DHT22;3623;47.098;15.446;2023-08-08T10:06:18;19.70;99.90
7163;DHT22;3623;47.098;15.446;2023-08-08T10:08:46;19.70;99.90
7163;DHT22;3623;47.098;15.446;2023-08-08T10:11:14;19.70;99.90
7163;DHT22;3623;47.098;15.446;2023-08-08T10:13:47;20.00;99.90
7163;DHT22;3623;47.098;15.446;2023-08-08T10:16:16;20.40;99.90
7163;DHT22;3623;47.098;15.446;2023-08-08T10:18:45;20.60;99.90
7163;DHT22;3623;47.098;15.446;2023-08-08T10:21:12;20.80;99.90
7163;DHT22;3623;47.098;15.446;2023-08-08T10:23:40;20.50;99.90
7163;DHT22;3623;47.098;15.446;2023-08-08T10:26:18;20.60;99.90
7163;DHT22;3623;47.098;15.446;2023-08-08T10:28:53;20.70;99.90
7163;DHT22;3623;47.098;15.446;2023-08-08T10:31:21;21.10;99.90
7163;DHT22;3623;47.098;15.446;2023-08-08T10:33:49;22.00;99.90
7163;DHT22;3623;47.098;15.446;2023-08-08T10:36:17;22.50;99.90
7163;DHT22;3623;47.098;15.446;2023-08-08T10:38:45;22.90;99.90
7163;DHT22;3623;47.098;15.446;2023-08-08T10:41:17;23.10;98.90
7163;DHT22;3623;47.098;15.446;2023-08-08T10:43:49;23.20;98.90
7163;DHT22;3623;47.098;15.446;2023-08-08T10:46:23;23.40;99.90
7163;DHT22;3623;47.098;15.446;2023-08-08T10:48:53;24.10;99.90
7163;DHT22;3623;47.098;15.446;2023-08-08T10:51:20;24.80;99.90
7163;DHT22;3623;47.098;15.446;2023-08-08T10:53:51;25.10;99.90
7163;DHT22;3623;47.098;15.446;2023-08-08T10:56:19;25.00;99.90
7163;DHT22;3623;47.098;15.446;2023-08-08T10:58:48;25.70;99.50
7163;DHT22;3623;47.098;15.446;2023-08-08T11:01:15;26.40;99.40
7163;DHT22;3623;47.098;15.446;2023-08-08T11:03:44;27.00;98.40
7163;DHT22;3623;47.098;15.446;2023-08-08T11:06:14;27.50;96.80
7163;DHT22;3623;47.098;15.446;2023-08-08T11:08:41;26.90;94.90
7163;DHT22;3623;47.098;15.446;2023-08-08T11:11:08;27.40;95.20
7163;DHT22;3623;47.098;15.446;2023-08-08T11:13:35;27.30;96.50
7163;DHT22;3623;47.098;15.446;2023-08-08T11:16:02;27.20;96.80
7163;DHT22;3623;47.098;15.446;2023-08-08T11:18:29;27.50;94.50
7163;DHT22;3623;47.098;15.446;2023-08-08T11:20:56;27.60;94.50
7163;DHT22;3623;47.098;15.446;2023-08-08T11:23:25;27.10;94.10
7163;DHT22;3623;47.098;15.446;2023-08-08T11:25:52;27.50;95.80
7163;DHT22;3623;47.098;15.446;2023-08-08T11:28:19;27.90;96.20
7163;DHT22;3623;47.098;15.446;2023-08-08T11:30:46;28.50;94.50
7163;DHT22;3623;47.098;15.446;2023-08-08T11:33:14;28.20;92.70
7163;DHT22;3623;47.098;15.446;2023-08-08T11:35:44;27.50;94.80
7163;DHT22;3623;47.098;15.446;2023-08-08T11:38:15;28.60;93.10
7163;DHT22;3623;47.098;15.446;2023-08-08T11:40:44;27.90;93.30
7163;DHT22;3623;47.098;15.446;2023-08-08T11:43:11;27.90;95.20
7163;DHT22;3623;47.098;15.446;2023-08-08T11:45:39;28.40;95.20
7163;DHT22;3623;47.098;15.446;2023-08-08T11:48:08;28.40;93.20
7163;DHT22;3623;47.098;15.446;2023-08-08T11:50:37;27.80;93.20
7163;DHT22;3623;47.098;15.446;2023-08-08T11:53:04;28.10;94.80
7163;DHT22;3623;47.098;15.446;2023-08-08T11:55:32;27.80;92.70
7163;DHT22;3623;47.098;15.446;2023-08-08T11:58:00;27.30;93.80
7163;DHT22;3623;47.098;15.446;2023-08-08T12:00:29;27.70;94.80
7163;DHT22;3623;47.098;15.446;2023-08-08T12:02:57;27.50;94.00
7163;DHT22;3623;47.098;15.446;2023-08-08T12:05:24;28.00;95.50
7163;DHT22;3623;47.098;15.446;2023-08-08T12:07:51;28.00;94.00
7163;DHT22;3623;47.098;15.446;2023-08-08T12:10:20;27.00;94.70
7163;DHT22;3623;47.098;15.446;2023-08-08T12:12:52;26.80;93.30
7163;DHT22;3623;47.098;15.446;2023-08-08T12:15:22;27.80;94.90
7163;DHT22;3623;47.098;15.446;2023-08-08T12:17:49;28.30;92.50
7163;DHT22;3623;47.098;15.446;2023-08-08T12:20:16;28.20;92.40
7163;DHT22;3623;47.098;15.446;2023-08-08T12:22:43;28.20;94.80
7163;DHT22;3623;47.098;15.446;2023-08-08T12:25:11;29.20;94.40
7163;DHT22;3623;47.098;15.446;2023-08-08T12:27:38;29.50;95.30
7163;DHT22;3623;47.098;15.446;2023-08-08T12:30:07;30.30;93.00
7163;DHT22;3623;47.098;15.446;2023-08-08T12:32:35;31.50;93.60
7163;DHT22;3623;47.098;15.446;2023-08-08T12:35:03;31.40;91.10
7163;DHT22;3623;47.098;15.446;2023-08-08T12:37:32;31.60;92.10
7163;DHT22;3623;47.098;15.446;2023-08-08T12:39:59;31.40;89.80
7163;DHT22;3623;47.098;15.446;2023-08-08T12:42:28;29.70;87.90
7163;DHT22;3623;47.098;15.446;2023-08-08T12:44:55;30.00;90.70
7163;DHT22;3623;47.098;15.446;2023-08-08T12:47:22;28.50;90.10
7163;DHT22;3623;47.098;15.446;2023-08-08T12:49:51;28.30;91.50
7163;DHT22;3623;47.098;15.446;2023-08-08T12:52:19;28.30;93.10
7163;DHT22;3623;47.098;15.446;2023-08-08T12:54:46;27.60;92.10
7163;DHT22;3623;47.098;15.446;2023-08-08T12:57:13;28.80;92.20
7163;DHT22;3623;47.098;15.446;2023-08-08T12:59:40;29.00;93.20
7163;DHT22;3623;47.098;15.446;2023-08-08T13:02:07;30.10;91.10
7163;DHT22;3623;47.098;15.446;2023-08-08T13:04:34;30.80;90.00
7163;DHT22;3623;47.098;15.446;2023-08-08T13:07:03;31.80;90.50
7163;DHT22;3623;47.098;15.446;2023-08-08T13:09:31;31.60;89.20
7163;DHT22;3623;47.098;15.446;2023-08-08T13:11:58;31.80;89.80
7163;DHT22;3623;47.098;15.446;2023-08-08T13:14:25;31.70;89.90
7163;DHT22;3623;47.098;15.446;2023-08-08T13:16:52;30.60;91.30
7163;DHT22;3623;47.098;15.446;2023-08-08T13:19:20;30.90;91.30
7163;DHT22;3623;47.098;15.446;2023-08-08T13:21:50;30.80;91.90
7163;DHT22;3623;47.098;15.446;2023-08-08T13:24:19;30.60;91.40
7163;DHT22;3623;47.098;15.446;2023-08-08T13:26:48;31.10;90.50
7163;DHT22;3623;47.098;15.446;2023-08-08T13:29:16;30.60;89.90
7163;DHT22;3623;47.098;15.446;2023-08-08T13:31:43;31.00;89.40
7163;DHT22;3623;47.098;15.446;2023-08-08T13:34:10;31.00;89.50
7163;DHT22;3623;47.098;15.446;2023-08-08T13:36:37;30.50;88.90
7163;DHT22;3623;47.098;15.446;2023-08-08T13:39:04;30.90;90.30
7163;DHT22;3623;47.098;15.446;2023-08-08T13:41:33;31.10;89.80
7163;DHT22;3623;47.098;15.446;2023-08-08T13:44:00;30.20;86.20
7163;DHT22;3623;47.098;15.446;2023-08-08T13:46:28;30.70;88.90
7163;DHT22;3623;47.098;15.446;2023-08-08T13:48:55;30.80;88.80
7163;DHT22;3623;47.098;15.446;2023-08-08T13:51:22;30.60;89.50
7163;DHT22;3623;47.098;15.446;2023-08-08T13:53:49;30.00;87.10
7163;DHT22;3623;47.098;15.446;2023-08-08T13:56:17;29.60;88.80
7163;DHT22;3623;47.098;15.446;2023-08-08T13:58:46;28.70;90.00
7163;DHT22;3623;47.098;15.446;2023-08-08T14:01:13;28.40;91.00
7163;DHT22;3623;47.098;15.446;2023-08-08T14:03:40;28.90;90.80
7163;DHT22;3623;47.098;15.446;2023-08-08T14:06:07;28.90;91.60
7163;DHT22;3623;47.098;15.446;2023-08-08T14:08:35;29.00;90.00
7163;DHT22;3623;47.098;15.446;2023-08-08T14:11:02;29.60;90.50
7163;DHT22;3623;47.098;15.446;2023-08-08T14:13:29;29.60;89.90
7163;DHT22;3623;47.098;15.446;2023-08-08T14:15:57;29.90;92.10
7163;DHT22;3623;47.098;15.446;2023-08-08T14:18:24;29.40;89.00
7163;DHT22;3623;47.098;15.446;2023-08-08T14:20:51;29.70;90.80
7163;DHT22;3623;47.098;15.446;2023-08-08T14:23:19;29.40;91.10
7163;DHT22;3623;47.098;15.446;2023-08-08T14:25:47;29.00;91.30
7163;DHT22;3623;47.098;15.446;2023-08-08T14:28:14;28.40;92.20
7163;DHT22;3623;47.098;15.446;2023-08-08T14:30:41;28.10;90.90
7163;DHT22;3623;47.098;15.446;2023-08-08T14:33:10;27.90;90.80
7163;DHT22;3623;47.098;15.446;2023-08-08T14:35:37;28.00;90.50
7163;DHT22;3623;47.098;15.446;2023-08-08T14:38:04;27.40;91.40
7163;DHT22;3623;47.098;15.446;2023-08-08T14:40:32;27.50;92.20
7163;DHT22;3623;47.098;15.446;2023-08-08T14:43:00;27.50;91.80
7163;DHT22;3623;47.098;15.446;2023-08-08T14:45:27;27.80;92.20
7163;DHT22;3623;47.098;15.446;2023-08-08T14:47:55;26.80;92.00
7163;DHT22;3623;47.098;15.446;2023-08-08T14:50:24;26.00;92.40
7163;DHT22;3623;47.098;15.446;2023-08-08T14:52:51;25.70;92.60
7163;DHT22;3623;47.098;15.446;2023-08-08T14:55:18;25.70;93.50
7163;DHT22;3623;47.098;15.446;2023-08-08T14:57:45;25.90;94.40
7163;DHT22;3623;47.098;15.446;2023-08-08T15:00:13;25.40;93.70
7163;DHT22;3623;47.098;15.446;2023-08-08T15:02:40;24.90;94.50
7163;DHT22;3623;47.098;15.446;2023-08-08T15:05:08;24.50;95.80
7163;DHT22;3623;47.098;15.446;2023-08-08T15:07:37;24.10;94.70
7163;DHT22;3623;47.098;15.446;2023-08-08T15:10:05;24.10;95.60
7163;DHT22;3623;47.098;15.446;2023-08-08T15:12:32;23.70;95.30
7163;DHT22;3623;47.098;15.446;2023-08-08T15:14:59;23.70;97.60
7163;DHT22;3623;47.098;15.446;2023-08-08T15:17:27;23.40;97.10
7163;DHT22;3623;47.098;15.446;2023-08-08T15:19:54;23.20;97.00
7163;DHT22;3623;47.098;15.446;2023-08-08T15:22:21;22.80;98.10
7163;DHT22;3623;47.098;15.446;2023-08-08T15:24:50;22.60;97.90
7163;DHT22;3623;47.098;15.446;2023-08-08T15:27:17;22.50;98.90
7163;DHT22;3623;47.098;15.446;2023-08-08T15:29:45;22.70;99.30
7163;DHT22;3623;47.098;15.446;2023-08-08T15:32:13;22.60;99.10
7163;DHT22;3623;47.098;15.446;2023-08-08T15:34:40;22.50;99.00
7163;DHT22;3623;47.098;15.446;2023-08-08T15:37:08;22.40;99.30
7163;DHT22;3623;47.098;15.446;2023-08-08T15:39:37;22.50;99.90
7163;DHT22;3623;47.098;15.446;2023-08-08T15:42:06;22.50;99.90
7163;DHT22;3623;47.098;15.446;2023-08-08T15:44:33;22.50;99.90
7163;DHT22;3623;47.098;15.446;2023-08-08T15:47:00;22.40;99.90
7163;DHT22;3623;47.098;15.446;2023-08-08T15:49:27;22.30;99.90
7163;DHT22;3623;47.098;15.446;2023-08-08T15:51:54;22.10;99.90